Time;durP1;ratioP1;P1;durP2;ratioP2;P2;SDS_P1;SDS_P2;PMS_P1;PMS_P2;Temp;Humidity;BMP_temperature;BMP_pressure;BME280_temperature;BME280_humidity;BME280_pressure;Samples;Min_cycle;Max_cycle;Signal;HPM_P1;HPM_P2
2022/08/26 00:00:52;;;;;;;10.70;5.30;;;;;;;16.86;77.56;100194.52;130446;1268;108677;-71
2022/08/26 00:03:58;;;;;;;8.60;5.60;;;;;;;16.90;77.74;100194.46;130276;1268;107673;-70
2022/08/26 00:07:04;;;;;;;6.60;5.10;;;;;;;16.94;77.75;100195.00;130326;1268;108603;-71
2022/08/26 00:10:10;;;;;;;8.00;5.30;;;;;;;16.93;77.56;100193.17;130300;1268;108511;-71
2022/08/26 00:13:17;;;;;;;5.40;4.60;;;;;;;16.86;77.34;100196.73;130233;1267;108693;-71
2022/08/26 00:16:23;;;;;;;5.90;4.70;;;;;;;16.81;77.60;100194.58;130385;1268;108565;-71
2022/08/26 00:19:28;;;;;;;7.00;4.90;;;;;;;16.77;77.33;100194.10;129163;1268;1621860;-72
2022/08/26 00:22:34;;;;;;;9.80;5.40;;;;;;;16.65;77.63;100190.85;130539;1267;108617;-72
2022/08/26 00:25:40;;;;;;;9.40;5.60;;;;;;;16.71;77.78;100190.85;130376;1267;108892;-72
2022/08/26 00:28:45;;;;;;;9.80;5.50;;;;;;;16.68;77.53;100196.06;130289;1267;108756;-71
2022/08/26 00:31:51;;;;;;;6.30;4.70;;;;;;;16.59;77.68;100195.23;130400;1268;108715;-72
2022/08/26 00:34:56;;;;;;;7.70;5.00;;;;;;;16.55;77.82;100195.02;130244;1267;107478;-72
2022/08/26 00:38:02;;;;;;;9.10;5.00;;;;;;;16.56;77.91;100195.63;130334;1268;108775;-72
2022/08/26 00:41:08;;;;;;;10.50;5.60;;;;;;;16.54;77.87;100189.88;130412;1268;107716;-72
2022/08/26 00:44:13;;;;;;;11.30;5.30;;;;;;;16.56;78.09;100187.58;130386;1268;108742;-71
2022/08/26 00:47:26;;;;;;;10.60;5.40;;;;;;;16.60;77.89;100188.92;130458;1268;108738;-72
2022/08/26 00:50:35;;;;;;;8.30;5.30;;;;;;;16.55;77.82;100187.02;130425;1268;107284;-72
2022/08/26 00:53:48;;;;;;;9.50;5.10;;;;;;;16.47;77.86;100189.91;130418;1268;108719;-73
2022/08/26 00:56:57;;;;;;;10.00;4.50;;;;;;;16.41;77.90;100193.15;130361;1267;108658;-71
2022/08/26 01:00:08;;;;;;;6.10;5.00;;;;;;;16.41;77.79;100196.10;130387;1268;108013;-71
2022/08/26 01:03:16;;;;;;;7.90;4.80;;;;;;;16.37;77.99;100196.36;130385;1266;107071;-70
2022/08/26 01:06:23;;;;;;;7.40;4.90;;;;;;;16.40;78.01;100197.80;130437;1268;108569;-72
2022/08/26 01:09:29;;;;;;;6.80;5.20;;;;;;;16.43;78.10;100200.80;130525;1268;108929;-72
2022/08/26 01:12:39;;;;;;;7.10;5.30;;;;;;;16.43;78.07;100200.01;130348;1268;108713;-71
2022/08/26 01:15:47;;;;;;;9.40;4.90;;;;;;;16.36;78.14;100199.90;130343;1268;108851;-70
2022/08/26 01:18:58;;;;;;;12.50;4.70;;;;;;;16.29;78.20;100197.89;130313;1268;108817;-72
2022/08/26 01:22:10;;;;;;;6.60;4.60;;;;;;;16.25;78.07;100194.33;130334;1268;108244;-71
2022/08/26 01:25:16;;;;;;;6.40;4.80;;;;;;;16.23;78.27;100192.73;130269;1267;108676;-72
2022/08/26 01:28:26;;;;;;;6.00;4.50;;;;;;;16.24;78.21;100192.14;130346;1268;107014;-72
2022/08/26 01:31:36;;;;;;;7.90;5.20;;;;;;;16.18;78.11;100191.77;130433;1267;108850;-72
2022/08/26 01:34:42;;;;;;;8.30;4.70;;;;;;;16.13;78.28;100192.76;130316;1268;108549;-71
2022/08/26 01:37:52;;;;;;;7.10;4.20;;;;;;;16.09;78.29;100192.55;130327;1267;108724;-73
2022/08/26 01:40:58;;;;;;;6.60;4.80;;;;;;;16.06;78.19;100195.04;130312;1266;109052;-73
2022/08/26 01:44:06;;;;;;;7.50;5.00;;;;;;;16.02;78.31;100196.25;130368;1268;108582;-73
2022/08/26 01:47:14;;;;;;;7.20;5.10;;;;;;;15.99;78.23;100193.27;130319;1267;108976;-72
2022/08/26 01:50:23;;;;;;;8.80;5.40;;;;;;;15.99;78.47;100195.50;130333;1266;108594;-72
2022/08/26 01:53:29;;;;;;;9.40;5.10;;;;;;;15.99;78.41;100197.70;130342;1268;109033;-72
2022/08/26 01:56:35;;;;;;;7.00;4.40;;;;;;;15.89;77.88;100201.23;130339;1268;108246;-72
2022/08/26 01:59:41;;;;;;;8.40;4.10;;;;;;;15.81;78.07;100201.25;130371;1268;108954;-72
2022/08/26 02:02:50;;;;;;;6.70;4.60;;;;;;;15.73;78.16;100197.27;130272;1267;108689;-72
2022/08/26 02:05:59;;;;;;;7.10;4.30;;;;;;;15.72;78.62;100193.14;130347;1268;109116;-73
2022/08/26 02:09:06;;;;;;;7.60;5.00;;;;;;;15.70;78.04;100191.20;130336;1268;108487;-72
2022/08/26 02:12:15;;;;;;;7.10;4.70;;;;;;;15.63;78.05;100193.89;130345;1267;108433;-73
2022/08/26 02:15:20;;;;;;;7.60;4.80;;;;;;;15.51;78.02;100191.34;130391;1268;109220;-73
2022/08/26 02:18:28;;;;;;;8.20;4.90;;;;;;;15.46;78.66;100195.50;130463;1267;108717;-73
2022/08/26 02:21:33;;;;;;;7.90;4.60;;;;;;;15.46;78.38;100192.02;130342;1268;109071;-74
2022/08/26 02:24:51;;;;;;;7.50;4.50;;;;;;;15.41;78.51;100193.14;130411;1267;108559;-80
2022/08/26 02:27:57;;;;;;;5.40;4.30;;;;;;;15.47;78.78;100192.73;130587;1268;108779;-80
2022/08/26 02:31:02;;;;;;;4.90;4.20;;;;;;;15.58;78.75;100193.71;130562;1267;108890;-81
2022/08/26 02:34:13;;;;;;;6.50;4.70;;;;;;;15.67;78.72;100192.11;130554;1267;108805;-85
2022/08/26 02:37:19;;;;;;;7.80;4.60;;;;;;;15.74;78.48;100188.77;130643;1268;108905;-80
2022/08/26 02:40:29;;;;;;;8.20;4.90;;;;;;;15.71;78.29;100186.77;130461;1267;108702;-80
2022/08/26 02:43:35;;;;;;;6.30;4.00;;;;;;;15.68;78.35;100188.70;130790;1268;109052;-78
2022/08/26 02:46:41;;;;;;;5.50;4.20;;;;;;;15.69;78.39;100189.88;130659;1268;109650;-78
2022/08/26 02:49:47;;;;;;;6.70;4.50;;;;;;;15.65;78.48;100188.45;130418;1268;108733;-79
2022/08/26 02:52:53;;;;;;;7.90;4.40;;;;;;;15.63;78.40;100187.16;130384;1268;108646;-76
2022/08/26 02:55:58;;;;;;;5.90;4.60;;;;;;;15.57;78.31;100184.50;130381;1268;108468;-79
2022/08/26 02:59:04;;;;;;;5.90;4.40;;;;;;;15.43;78.35;100182.16;130547;1268;108725;-79
2022/08/26 03:02:11;;;;;;;5.90;4.30;;;;;;;15.39;78.89;100179.95;130436;1268;108978;-80
2022/08/26 03:05:18;;;;;;;6.80;3.90;;;;;;;15.36;78.45;100178.52;130452;1268;108844;-79
2022/08/26 03:08:24;;;;;;;7.80;4.10;;;;;;;15.27;78.43;100175.79;130302;1267;108594;-79
2022/08/26 03:11:29;;;;;;;5.50;4.00;;;;;;;15.17;78.78;100178.42;130484;1268;107385;-78
2022/08/26 03:14:35;;;;;;;5.20;4.20;;;;;;;15.17;79.00;100178.39;130508;1267;108935;-79
2022/08/26 03:17:40;;;;;;;8.50;4.40;;;;;;;15.17;79.01;100179.19;130396;1268;108867;-79
2022/08/26 03:20:46;;;;;;;10.20;4.20;;;;;;;15.21;79.00;100176.50;130399;1268;108813;-77
2022/08/26 03:23:51;;;;;;;7.20;4.30;;;;;;;15.20;78.68;100172.92;130374;1268;107463;-79
2022/08/26 03:26:56;;;;;;;7.80;4.10;;;;;;;15.15;78.91;100179.27;130408;1266;108682;-78
2022/08/26 03:33:26;;;;;;;6.60;4.20;;;;;;;14.92;78.23;100184.44;130378;1267;107694;-78
2022/08/26 03:36:32;;;;;;;7.90;4.30;;;;;;;14.90;79.11;100179.52;130354;1268;108724;-78
2022/08/26 03:39:37;;;;;;;6.50;4.30;;;;;;;14.96;79.11;100181.70;130394;1268;108785;-78
2022/08/26 03:42:43;;;;;;;6.30;4.50;;;;;;;14.98;79.00;100181.14;130353;1268;108729;-78
2022/08/26 03:45:49;;;;;;;7.80;4.20;;;;;;;14.92;79.16;100181.38;130384;1268;108900;-78
2022/08/26 03:48:54;;;;;;;6.20;3.90;;;;;;;14.89;79.03;100177.30;130395;1268;108671;-77
2022/08/26 03:52:00;;;;;;;7.70;4.00;;;;;;;14.85;79.10;100174.31;130214;1267;109133;-77
2022/08/26 03:55:07;;;;;;;5.60;3.90;;;;;;;14.88;79.21;100173.15;130282;1268;109006;-77
2022/08/26 03:58:12;;;;;;;7.50;4.60;;;;;;;14.89;79.16;100171.39;130311;1267;108701;-78
2022/08/26 04:01:18;;;;;;;5.40;4.20;;;;;;;14.89;79.30;100169.98;130379;1268;108826;-77
2022/08/26 04:04:23;;;;;;;6.70;4.60;;;;;;;14.86;79.07;100171.86;130402;1268;108752;-77
2022/08/26 04:07:29;;;;;;;5.20;4.20;;;;;;;14.84;79.37;100167.18;130380;1268;108103;-77
2022/08/26 04:10:37;;;;;;;8.00;4.40;;;;;;;14.87;79.59;100168.27;130455;1268;107556;-77
2022/08/26 04:13:42;;;;;;;6.80;4.20;;;;;;;14.90;79.82;100169.23;130457;1267;107599;-76
2022/08/26 04:16:48;;;;;;;8.40;4.10;;;;;;;14.96;80.00;100165.09;130394;1268;108633;-77
2022/08/26 04:19:55;;;;;;;7.60;4.20;;;;;;;15.04;79.96;100163.55;130353;1268;108944;-79
2022/08/26 04:23:00;;;;;;;5.90;4.00;;;;;;;15.14;79.83;100162.33;130401;1268;108771;-75
2022/08/26 04:26:06;;;;;;;8.40;4.60;;;;;;;15.21;79.89;100157.30;130502;1268;108686;-74
2022/08/26 04:29:15;;;;;;;6.60;3.80;;;;;;;15.24;79.83;100157.77;130462;1268;108591;-75
2022/08/26 04:32:21;;;;;;;5.90;3.60;;;;;;;15.30;80.12;100155.73;130403;1268;108552;-75
2022/08/26 04:35:26;;;;;;;4.70;3.90;;;;;;;15.44;80.09;100155.66;130456;1268;108474;-76
2022/08/26 04:38:32;;;;;;;8.20;3.80;;;;;;;15.62;80.24;100152.88;130284;1268;108659;-77
2022/08/26 04:41:38;;;;;;;5.20;4.20;;;;;;;15.81;80.17;100155.40;130498;1268;108554;-75
2022/08/26 04:44:45;;;;;;;7.90;4.00;;;;;;;15.98;80.16;100158.65;130430;1268;108939;-75
2022/08/26 04:47:55;;;;;;;8.80;4.20;;;;;;;16.15;80.22;100155.70;130420;1268;108768;-77
2022/08/26 04:51:01;;;;;;;5.40;3.50;;;;;;;16.28;80.30;100158.23;130368;1268;108689;-76
2022/08/26 04:54:07;;;;;;;5.90;3.80;;;;;;;16.38;80.41;100162.31;130320;1268;108966;-76
2022/08/26 04:57:14;;;;;;;4.30;3.30;;;;;;;16.49;80.37;100158.46;130526;1268;108787;-75
2022/08/26 05:00:21;;;;;;;8.70;4.40;;;;;;;16.68;80.47;100159.49;130432;1268;108919;-76
2022/08/26 05:03:27;;;;;;;6.40;4.10;;;;;;;16.86;80.25;100163.80;130324;1268;107322;-77
2022/08/26 05:06:33;;;;;;;5.80;3.80;;;;;;;17.03;80.44;100161.64;130350;1268;108655;-78
2022/08/26 05:09:39;;;;;;;6.30;3.70;;;;;;;17.20;80.50;100162.03;130279;1268;108844;-77
2022/08/26 05:12:44;;;;;;;5.50;3.70;;;;;;;17.36;80.49;100166.13;130324;1268;108846;-76
2022/08/26 05:15:50;;;;;;;5.90;3.70;;;;;;;17.53;80.76;100163.30;130342;1268;109025;-76
2022/08/26 05:18:56;;;;;;;5.70;4.20;;;;;;;17.70;80.60;100163.23;130404;1268;108849;-76
2022/08/26 05:22:01;;;;;;;6.40;4.40;;;;;;;17.80;80.64;100162.84;130317;1268;108725;-76
2022/08/26 05:25:08;;;;;;;5.80;3.50;;;;;;;17.85;80.64;100168.61;130357;1268;108718;-77
2022/08/26 05:28:16;;;;;;;7.00;3.70;;;;;;;17.92;80.83;100166.70;130460;1268;108788;-77
2022/08/26 05:31:24;;;;;;;9.30;4.20;;;;;;;18.04;80.95;100165.59;130465;1267;108731;-76
2022/08/26 05:34:31;;;;;;;6.00;3.90;;;;;;;18.20;81.10;100163.63;130407;1268;108495;-77
2022/08/26 05:37:38;;;;;;;5.50;3.80;;;;;;;18.41;81.40;100162.11;130501;1268;108687;-80
2022/08/26 05:40:46;;;;;;;5.70;3.60;;;;;;;18.59;81.60;100167.45;130659;1268;108656;-81
2022/08/26 05:43:51;;;;;;;5.80;3.60;;;;;;;18.76;81.72;100168.52;130711;1268;108810;-81
2022/08/26 05:46:57;;;;;;;6.30;3.70;;;;;;;18.97;81.77;100171.03;130737;1268;108742;-81
2022/08/26 05:50:04;;;;;;;5.00;3.60;;;;;;;19.17;81.94;100174.36;130770;1268;108864;-81
2022/08/26 05:53:12;;;;;;;7.70;4.00;;;;;;;19.38;81.70;100173.14;130683;1268;108552;-81
2022/08/26 05:56:18;;;;;;;6.20;3.80;;;;;;;19.57;81.74;100173.88;130666;1268;108640;-81
2022/08/26 05:59:24;;;;;;;7.20;3.80;;;;;;;19.77;81.93;100176.09;130850;1268;108953;-81
2022/08/26 06:02:29;;;;;;;7.50;3.70;;;;;;;19.96;81.19;100177.25;130775;1268;108957;-81
2022/08/26 06:05:39;;;;;;;6.90;3.90;;;;;;;20.18;80.96;100172.63;130730;1268;108801;-81
2022/08/26 06:08:46;;;;;;;6.40;3.80;;;;;;;20.39;80.55;100170.40;130848;1268;108760;-81
2022/08/26 06:11:51;;;;;;;6.40;3.90;;;;;;;20.58;80.18;100165.42;130774;1268;108800;-81
2022/08/26 06:14:57;;;;;;;7.50;3.60;;;;;;;20.74;80.10;100166.72;130649;1268;108788;-81
2022/08/26 06:18:02;;;;;;;6.70;3.70;;;;;;;20.82;80.30;100165.41;130656;1268;107615;-80
2022/08/26 06:21:16;;;;;;;6.60;3.60;;;;;;;20.87;80.01;100165.98;130520;1268;107702;-81
2022/08/26 06:27:45;;;;;;;7.50;3.50;;;;;;;21.02;79.97;100165.09;130573;1268;108755;-81
2022/08/26 06:30:50;;;;;;;5.40;3.50;;;;;;;21.08;79.88;100167.66;130547;1268;108606;-81
2022/08/26 06:33:57;;;;;;;7.40;3.60;;;;;;;21.11;80.27;100171.14;130488;1267;108562;-81
2022/08/26 06:37:04;;;;;;;8.30;3.70;;;;;;;21.13;80.58;100174.02;130526;1268;108619;-81
2022/08/26 06:40:11;;;;;;;6.20;3.40;;;;;;;21.14;80.52;100172.42;130427;1267;107360;-81
2022/08/26 06:43:18;;;;;;;5.80;3.20;;;;;;;21.20;80.45;100172.58;130497;1267;108642;-80
2022/08/26 06:46:24;;;;;;;6.40;3.40;;;;;;;21.27;79.84;100171.52;130637;1268;108855;-80
2022/08/26 06:49:29;;;;;;;4.90;3.50;;;;;;;21.38;79.45;100168.62;130646;1268;108961;-81
2022/08/26 06:52:34;;;;;;;7.20;3.60;;;;;;;21.54;79.13;100166.35;130424;1268;108679;-81
2022/08/26 06:55:44;;;;;;;9.20;3.60;;;;;;;21.70;78.53;100165.05;130469;1268;108789;-81
2022/08/26 06:58:50;;;;;;;10.90;4.40;;;;;;;21.85;78.05;100161.77;130397;1268;108901;-81
2022/08/26 07:01:56;;;;;;;7.30;3.80;;;;;;;21.96;77.42;100165.84;130404;1267;108704;-81
2022/08/26 07:05:01;;;;;;;5.70;3.80;;;;;;;22.03;76.86;100164.27;130384;1267;109052;-81
2022/08/26 07:08:06;;;;;;;8.20;4.10;;;;;;;22.15;77.46;100159.92;130350;1268;108695;-81
2022/08/26 07:11:12;;;;;;;7.60;3.30;;;;;;;22.26;76.73;100158.70;130404;1267;108693;-81
2022/08/26 07:14:18;;;;;;;7.90;3.30;;;;;;;22.32;76.04;100161.15;130313;1268;109013;-81
2022/08/26 07:17:23;;;;;;;8.40;4.10;;;;;;;22.39;75.81;100159.30;130329;1267;107626;-81
2022/08/26 07:20:29;;;;;;;8.20;4.40;;;;;;;22.46;76.09;100158.64;130166;1268;108679;-83
2022/08/26 07:23:35;;;;;;;6.70;3.70;;;;;;;22.59;75.69;100160.23;130173;1268;108705;-81
2022/08/26 07:26:40;;;;;;;7.20;3.90;;;;;;;22.69;75.35;100161.94;130334;1268;108758;-81
2022/08/26 07:29:46;;;;;;;6.30;3.50;;;;;;;22.75;75.05;100161.34;130317;1268;108738;-81
2022/08/26 07:32:52;;;;;;;6.70;3.50;;;;;;;22.78;74.82;100162.38;130319;1267;107601;-81
2022/08/26 07:35:57;;;;;;;8.00;3.50;;;;;;;22.83;74.74;100159.95;130320;1268;108781;-80
2022/08/26 07:39:03;;;;;;;6.10;3.50;;;;;;;22.88;74.13;100163.91;130325;1267;107104;-81
2022/08/26 07:42:11;;;;;;;7.30;4.20;;;;;;;22.91;73.60;100161.05;130379;1267;108640;-81
2022/08/26 07:45:17;;;;;;;9.80;3.50;;;;;;;22.99;74.33;100159.67;130375;1268;109076;-81
2022/08/26 07:48:26;;;;;;;5.70;3.70;;;;;;;23.07;73.74;100158.98;130302;1268;107703;-81
2022/08/26 07:51:32;;;;;;;8.60;3.40;;;;;;;23.13;73.63;100159.63;130352;1268;107676;-80
2022/08/26 07:54:37;;;;;;;6.60;3.60;;;;;;;23.21;72.98;100158.37;130242;1268;108787;-80
2022/08/26 07:57:43;;;;;;;5.80;3.60;;;;;;;23.27;72.34;100152.14;130377;1267;108674;-80
2022/08/26 08:00:48;;;;;;;5.60;3.00;;;;;;;23.35;72.61;100152.51;130340;1267;109041;-80
2022/08/26 08:03:54;;;;;;;5.40;3.30;;;;;;;23.41;71.21;100149.96;130358;1267;108974;-80
2022/08/26 08:07:00;;;;;;;7.00;3.50;;;;;;;23.47;71.84;100149.88;130317;1267;108717;-80
2022/08/26 08:10:07;;;;;;;5.30;3.30;;;;;;;23.52;71.74;100149.27;130300;1268;109084;-80
2022/08/26 08:13:13;;;;;;;4.40;3.40;;;;;;;23.58;71.12;100151.10;130335;1268;108814;-80
2022/08/26 08:16:19;;;;;;;5.40;3.30;;;;;;;23.65;70.94;100148.62;130350;1268;109262;-80
2022/08/26 08:19:25;;;;;;;7.20;3.80;;;;;;;23.73;71.08;100149.20;130321;1267;108679;-80
2022/08/26 08:22:31;;;;;;;9.00;3.60;;;;;;;23.78;70.61;100152.90;130279;1267;108613;-80
2022/08/26 08:25:36;;;;;;;5.90;3.40;;;;;;;23.83;70.52;100153.55;130260;1268;108734;-79
2022/08/26 08:28:41;;;;;;;5.40;3.30;;;;;;;23.87;70.47;100149.05;130309;1267;108747;-79
2022/08/26 08:31:48;;;;;;;6.50;3.40;;;;;;;23.95;70.68;100142.95;130316;1268;109013;-79
2022/08/26 08:34:53;;;;;;;5.20;3.50;;;;;;;24.02;70.27;100142.80;130254;1268;107331;-80
2022/08/26 08:37:58;;;;;;;5.10;3.50;;;;;;;24.09;70.14;100140.85;130263;1268;108720;-79
2022/08/26 08:41:04;;;;;;;5.00;3.30;;;;;;;24.14;69.47;100140.65;130306;1267;109202;-79
2022/08/26 08:44:17;;;;;;;3.90;3.40;;;;;;;24.19;69.77;100139.40;130319;1267;107745;-80
2022/08/26 08:47:33;;;;;;;6.20;3.50;;;;;;;24.27;69.84;100133.77;130318;1267;109876;-79
2022/08/26 08:50:45;;;;;;;3.80;3.00;;;;;;;24.39;69.52;100132.04;130383;1268;108712;-79
2022/08/26 08:53:53;;;;;;;6.60;3.20;;;;;;;24.45;69.54;100129.74;130393;1267;108828;-80
2022/08/26 08:57:07;;;;;;;7.80;3.30;;;;;;;24.56;68.45;100124.15;130267;1268;108699;-79
2022/08/26 09:00:18;;;;;;;7.70;3.50;;;;;;;24.66;68.18;100117.84;130243;1267;108741;-79
2022/08/26 09:03:38;;;;;;;6.40;3.40;;;;;;;24.72;68.18;100119.92;130323;1267;108642;-79
2022/08/26 09:06:45;;;;;;;8.30;3.50;;;;;;;24.76;68.28;100121.23;130325;1268;108730;-80
2022/08/26 09:09:54;;;;;;;6.90;3.70;;;;;;;24.85;67.79;100121.59;130317;1267;108829;-78
2022/08/26 09:13:01;;;;;;;6.00;3.00;;;;;;;24.90;67.13;100122.64;130338;1268;108716;-79
2022/08/26 09:16:13;;;;;;;7.00;3.00;;;;;;;24.91;66.41;100122.34;130241;1268;108816;-79
2022/08/26 09:19:26;;;;;;;6.80;3.20;;;;;;;24.94;66.66;100126.64;130361;1267;108714;-79
2022/08/26 09:22:34;;;;;;;7.30;2.90;;;;;;;24.96;66.18;100123.65;130299;1267;108837;-79
2022/08/26 09:25:52;;;;;;;11.40;6.70;;;;;;;25.00;66.17;100124.04;130270;1268;108734;-78
2022/08/26 09:29:00;;;;;;;9.00;5.10;;;;;;;25.07;65.18;100122.83;130333;1267;108720;-79
2022/08/26 09:32:23;;;;;;;7.40;3.60;;;;;;;25.19;63.80;100120.58;130282;1268;109086;-80
2022/08/26 09:35:30;;;;;;;9.80;6.50;;;;;;;25.31;64.30;100116.83;130330;1267;108784;-79
2022/08/26 09:38:36;;;;;;;9.20;4.40;;;;;;;25.43;64.09;100115.01;130260;1268;109164;-79
2022/08/26 09:41:41;;;;;;;8.60;3.70;;;;;;;25.53;63.35;100114.24;130354;1267;109045;-79
2022/08/26 09:44:58;;;;;;;7.00;3.70;;;;;;;25.61;63.13;100112.36;130278;1267;108645;-79
2022/08/26 09:48:06;;;;;;;9.00;3.20;;;;;;;25.70;63.05;100110.77;130357;1267;106949;-79
2022/08/26 09:51:28;;;;;;;5.90;3.60;;;;;;;25.80;63.34;100108.91;130342;1268;109593;-79
2022/08/26 09:54:34;;;;;;;4.90;3.30;;;;;;;25.88;62.69;100106.31;130420;1267;108988;-79
2022/08/26 09:57:48;;;;;;;5.60;3.30;;;;;;;25.94;62.60;100103.05;130487;1267;108652;-79
2022/08/26 10:01:00;;;;;;;8.00;3.30;;;;;;;25.98;62.10;100099.17;130333;1267;108427;-79
2022/08/26 10:04:09;;;;;;;;;;;;;;;26.05;62.24;100099.50;130530;1267;108443;-77
2022/08/26 10:07:33;;;;;;;6.90;3.90;;;;;;;26.13;60.26;100094.32;130417;1268;108749;-79
2022/08/26 10:10:41;;;;;;;5.90;2.90;;;;;;;26.25;60.48;100094.38;130402;1268;108837;-78
2022/08/26 10:13:52;;;;;;;5.40;2.60;;;;;;;26.36;57.33;100093.97;130460;1268;108651;-78
2022/08/26 10:17:02;;;;;;;3.20;2.80;;;;;;;26.56;59.10;100090.30;130294;1267;108847;-79
2022/08/26 10:20:12;;;;;;;9.60;3.20;;;;;;;26.73;58.99;100090.58;130398;1268;108729;-76
2022/08/26 10:23:24;;;;;;;6.20;3.00;;;;;;;26.88;58.78;100090.29;130324;1265;108934;-79
2022/08/26 10:26:38;;;;;;;;;;;;;;;26.97;58.50;100089.41;130436;1268;108932;-79
2022/08/26 10:29:46;;;;;;;7.10;3.20;;;;;;;27.01;57.44;100085.31;130182;1268;108752;-78
2022/08/26 10:32:56;;;;;;;8.00;3.10;;;;;;;26.99;57.74;100081.75;130400;1267;108796;-78
2022/08/26 10:36:47;;;;;;;5.40;3.10;;;;;;;26.99;57.42;100080.39;130409;1268;108539;-78
2022/08/26 10:39:35;;;;;;;;;;;;;;;27.00;57.18;100078.25;130412;1268;108879;-78
2022/08/26 10:42:46;;;;;;;5.40;2.70;;;;;;;26.99;56.02;100079.56;130415;1266;108298;-78
2022/08/26 10:45:54;;;;;;;9.50;2.90;;;;;;;27.03;54.21;100079.95;130398;1267;108776;-79
2022/08/26 10:49:05;;;;;;;6.40;2.80;;;;;;;27.12;55.53;100076.12;130376;1268;108941;-79
2022/08/26 10:52:18;;;;;;;6.20;2.90;;;;;;;27.18;54.53;100076.79;130335;1267;108529;-78
2022/08/26 10:55:32;;;;;;;7.90;2.80;;;;;;;27.22;52.90;100075.28;130306;1267;108916;-78
2022/08/26 10:58:51;;;;;;;8.70;3.20;;;;;;;27.31;53.58;100076.80;130279;1268;109129;-79
2022/08/26 11:02:05;;;;;;;7.10;3.00;;;;;;;27.32;54.07;100070.73;130305;1267;108935;-79
2022/08/26 11:05:18;;;;;;;6.10;3.00;;;;;;;27.23;53.97;100069.54;130288;1267;108766;-79
2022/08/26 11:08:30;;;;;;;5.30;2.90;;;;;;;27.17;52.22;100072.19;130324;1267;108882;-78
2022/08/26 11:11:50;;;;;;;6.30;2.60;;;;;;;27.21;52.46;100065.36;130293;1268;107053;-78
2022/08/26 11:14:55;;;;;;;5.20;3.10;;;;;;;27.27;52.39;100064.96;130309;1267;108984;-78
2022/08/26 11:18:03;;;;;;;5.60;2.80;;;;;;;27.28;52.77;100062.13;130345;1268;108747;-78
2022/08/26 11:21:55;;;;;;;10.40;3.20;;;;;;;27.28;52.86;100054.84;130346;1267;108777;-78
2022/08/26 11:25:08;;;;;;;4.00;3.00;;;;;;;27.36;52.18;100053.22;130242;1268;106974;-79
2022/08/26 11:28:34;;;;;;;8.40;3.60;;;;;;;27.48;52.30;100047.05;130301;1267;108719;-79
2022/08/26 11:31:56;;;;;;;5.60;3.10;;;;;;;27.55;52.35;100044.27;130468;1267;108791;-80
2022/08/26 11:35:05;;;;;;;4.10;2.80;;;;;;;27.63;52.09;100045.11;130520;1268;108721;-80
2022/08/26 11:38:28;;;;;;;7.70;2.80;;;;;;;27.69;51.15;100038.92;130426;1268;108642;-80
2022/08/26 11:41:34;;;;;;;6.10;3.00;;;;;;;27.83;50.66;100044.16;130372;1268;108679;-79
2022/08/26 11:44:43;;;;;;;6.70;3.60;;;;;;;27.96;51.39;100036.66;130338;1267;108565;-79
2022/08/26 11:47:48;;;;;;;8.10;3.50;;;;;;;28.04;50.40;100034.14;130362;1267;108589;-80
2022/08/26 11:50:56;;;;;;;4.40;2.70;;;;;;;28.15;49.45;100030.58;130496;1267;108327;-79
2022/08/26 11:54:13;;;;;;;5.90;3.30;;;;;;;28.27;49.78;100030.67;130323;1267;109188;-79
2022/08/26 11:57:19;;;;;;;6.80;3.50;;;;;;;28.38;49.96;100024.19;130439;1268;107743;-79
2022/08/26 12:00:27;;;;;;;7.00;3.50;;;;;;;28.49;48.11;100021.71;130448;1267;108708;-78
2022/08/26 12:03:39;;;;;;;5.30;3.50;;;;;;;28.64;48.31;100017.61;130403;1268;108767;-79
2022/08/26 12:06:51;;;;;;;7.40;3.60;;;;;;;28.80;48.15;100019.21;130298;1268;106870;-79
2022/08/26 12:09:57;;;;;;;;;;;;;;;28.89;46.48;100018.96;130361;1267;108937;-79
2022/08/26 12:13:05;;;;;;;5.80;4.00;;;;;;;29.02;47.05;100018.30;130389;1267;107677;-79
2022/08/26 12:16:10;;;;;;;6.40;4.50;;;;;;;29.17;46.59;100017.38;130481;1267;108828;-79
2022/08/26 12:19:28;;;;;;;8.70;4.20;;;;;;;29.30;46.99;100015.44;129226;1268;1543554;-79
2022/08/26 12:22:37;;;;;;;6.60;4.10;;;;;;;29.36;46.63;100012.21;130393;1266;109546;-79
2022/08/26 12:25:45;;;;;;;6.80;3.80;;;;;;;29.27;46.81;100012.76;130411;1268;107650;-79
2022/08/26 12:28:55;;;;;;;7.10;4.60;;;;;;;29.18;46.05;100015.17;130439;1266;108858;-78
2022/08/26 12:32:12;;;;;;;7.30;4.60;;;;;;;29.09;45.21;100010.86;130487;1268;108588;-80
2022/08/26 12:35:20;;;;;;;11.30;4.40;;;;;;;28.99;46.18;100007.76;130507;1268;108778;-80
2022/08/26 12:38:28;;;;;;;9.20;4.20;;;;;;;28.92;45.17;100006.14;130383;1267;107674;-80
2022/08/26 12:41:50;;;;;;;5.40;4.10;;;;;;;28.83;44.75;99998.33;130390;1267;108606;-80
2022/08/26 12:45:03;;;;;;;6.30;4.60;;;;;;;28.80;45.06;99997.41;130403;1267;108848;-79
2022/08/26 12:48:12;;;;;;;7.20;4.20;;;;;;;28.79;45.29;99989.34;130368;1266;108768;-79
2022/08/26 12:51:25;;;;;;;4.80;4.30;;;;;;;28.83;45.85;99984.61;130514;1267;108687;-78
2022/08/26 12:58:09;;;;;;;7.70;4.80;;;;;;;28.84;45.47;99982.67;130313;1267;108771;-78
2022/08/26 13:01:22;;;;;;;7.00;4.90;;;;;;;28.74;45.84;99979.54;130349;1268;108571;-78
2022/08/26 13:04:37;;;;;;;5.50;4.50;;;;;;;28.73;46.01;99973.55;130379;1268;108788;-79
2022/08/26 13:07:43;;;;;;;5.90;4.20;;;;;;;28.79;45.38;99974.17;130307;1268;108691;-79
2022/08/26 13:11:01;;;;;;;7.40;4.20;;;;;;;28.86;45.50;99972.45;130493;1268;108052;-79
2022/08/26 13:14:10;;;;;;;4.90;4.30;;;;;;;28.90;45.15;99968.14;130327;1267;108699;-79
2022/08/26 13:17:15;;;;;;;6.10;4.20;;;;;;;28.93;44.48;99965.71;130367;1265;108730;-79
2022/08/26 13:20:21;;;;;;;5.30;4.50;;;;;;;28.96;44.01;99960.30;130358;1267;108643;-79
2022/08/26 13:23:27;;;;;;;6.70;4.60;;;;;;;29.00;43.91;99955.84;130361;1268;108661;-80
2022/08/26 13:26:33;;;;;;;5.90;4.40;;;;;;;29.06;44.56;99955.92;130319;1267;108607;-78
2022/08/26 13:29:40;;;;;;;7.40;4.70;;;;;;;29.07;44.29;99952.58;130504;1267;108805;-76
2022/08/26 13:32:45;;;;;;;7.20;4.90;;;;;;;29.02;44.40;99949.08;130658;1266;108604;-76
2022/08/26 13:35:50;;;;;;;6.20;5.00;;;;;;;29.02;44.06;99949.63;130392;1266;108873;-73
2022/08/26 13:38:56;;;;;;;5.70;4.30;;;;;;;28.97;44.28;99951.20;130444;1266;108950;-79
2022/08/26 13:42:01;;;;;;;8.20;4.70;;;;;;;28.89;43.00;99948.98;130459;1268;109641;-75
2022/08/26 13:45:09;;;;;;;6.90;4.00;;;;;;;28.83;43.45;99943.35;130369;1267;108686;-78
2022/08/26 13:48:15;;;;;;;7.80;4.50;;;;;;;28.76;43.14;99941.08;130493;1268;108448;-82
2022/08/26 13:51:21;;;;;;;7.00;4.10;;;;;;;28.73;42.76;99941.42;130112;1267;108924;-80
2022/08/26 13:54:26;;;;;;;5.60;3.80;;;;;;;28.72;42.99;99932.70;130403;1267;108751;-79
2022/08/26 13:57:32;;;;;;;5.80;3.80;;;;;;;28.72;42.92;99933.86;130471;1268;108748;-81
2022/08/26 14:00:38;;;;;;;7.10;4.20;;;;;;;28.66;43.00;99931.14;130371;1268;108854;-78
2022/08/26 14:03:45;;;;;;;7.50;3.90;;;;;;;28.49;42.71;99931.23;130464;1268;109154;-78
2022/08/26 14:06:51;;;;;;;6.50;3.70;;;;;;;28.35;42.65;99931.01;130473;1267;108726;-79
2022/08/26 14:09:56;;;;;;;7.60;4.10;;;;;;;28.27;43.28;99930.31;130456;1267;108831;-79
2022/08/26 14:13:02;;;;;;;5.80;3.80;;;;;;;28.14;42.59;99927.70;130310;1267;108700;-78
2022/08/26 14:16:12;;;;;;;6.40;4.00;;;;;;;28.06;42.50;99924.71;130563;1268;108941;-81
2022/08/26 14:19:17;;;;;;;7.10;3.80;;;;;;;28.01;42.13;99924.29;130440;1268;108853;-80
2022/08/26 14:22:23;;;;;;;9.70;3.90;;;;;;;27.96;42.06;99921.48;130413;1268;108991;-80
2022/08/26 14:25:29;;;;;;;4.60;3.50;;;;;;;27.96;42.18;99919.80;130392;1268;107762;-79
2022/08/26 14:28:34;;;;;;;6.80;4.20;;;;;;;27.97;42.67;99917.59;130422;1267;109004;-79